Главная страница
METAR-TAF:

METAR-TAF

Аэропорты :

Лифука, Тонга

широта: 19-46-36S, долгота: 174-20-28W, высота над уровнем моря: 9 м

Текущие метеонаблюдения

Эта сводка был подготовлена 2 часа и 53 минут назад, в 06:00 UTC
Ветер 2 Узел переменных направлений
Температура 28°C
Влажность 94%
Давление 1009 hPa
Видимость 10 км и более
небольшая облачность на высоте 1000 фута
Отдельные облака на высоте 1600 фута, мощно-кучевые.
Рассеянная облачность на высоте 11000 фута

METAR: NFTL 240600Z VRB02KT 9999 FEW010 SCT016TCU BKN110 28/27 Q1009

Время: 21:53 (08:53 UTC)


TAF: отсутствует

Метеонаблюдения и прогнозы для более 4000 аэропортов (сводки METAR и TAF).

Имеющиеся станции представлены на карте желтыми и красными точками.

Чтобы увидеть название станции, наведите на нее мышь.

Затем щелкните, чтобы увидеть метеонаблюдения и метеопрогнозы.

Управление картой: чтобы увеличить масштаб, щелкните зеленые кнопки с черным крестиком; чтобы уменьшить масштаб, щелкните зеленую кнопку с тире; для просмотра соседних карт щелкайте зеленые стрелки.


METAR-TAF: